Time;durP1;ratioP1;P1;durP2;ratioP2;P2;SDS_P1;SDS_P2;PMS_P1;PMS_P2;Temp;Humidity;BMP_temperature;BMP_pressure;BME280_temperature;BME280_humidity;BME280_pressure;Samples;Min_cycle;Max_cycle;Signal;HPM_P1;HPM_P2
2023/09/26 00:00:58;;;;;;;;;;;;;;;;;;7363272;19;2067;-63
2023/09/26 00:03:26;;;;;;;;;;;;;;;;;;7366452;19;1849;-63
2023/09/26 00:05:55;;;;;;;;;;;;;;;;;;7368384;19;1665;-61
2023/09/26 00:08:23;;;;;;;;;;;;;;;;;;7366470;19;806;-62
2023/09/26 00:10:51;;;;;;;;;;;;;;;;;;7363501;19;1296;-63
2023/09/26 00:13:19;;;;;;;;;;;;;;;;;;7369082;19;1746;-63
2023/09/26 00:15:47;;;;;;;;;;;;;;;;;;7368435;19;1668;-62
2023/09/26 00:18:15;;;;;;;;;;;;;;;;;;7365220;19;777;-62
2023/09/26 00:20:44;;;;;;;;;;;;;;;;;;7364627;19;2000;-63
2023/09/26 00:23:12;;;;;;;;;;;;;;;;;;7367458;19;1845;-63
2023/09/26 00:25:40;;;;;;;;;;;;;;;;;;7364302;19;834;-62
2023/09/26 00:28:08;;;;;;;;;;;;;;;;;;7365845;19;947;-63
2023/09/26 00:30:37;;;;;;;;;;;;;;;;;;7362727;19;1683;-63
2023/09/26 00:33:05;;;;;;;;;;;;;;;;;;7368898;19;1228;-63
2023/09/26 00:35:34;;;;;;;;;;;;;;;;;;7362303;19;1793;-62
2023/09/26 00:38:02;;;;;;;;;;;;;;;;;;7365511;19;1929;-63
2023/09/26 00:40:30;;;;;;;;;;;;;;;;;;7367212;19;1868;-63
2023/09/26 00:42:58;;;;;;;;;;;;;;;;;;7361894;19;1839;-62
2023/09/26 00:45:26;;;;;;;;;;;;;;;;;;7364006;19;1685;-61
2023/09/26 00:47:54;;;;;;;;;;;;;;;;;;7366610;19;1888;-62
2023/09/26 00:50:23;;;;;;;;;;;;;;;;;;7363319;19;1742;-62
2023/09/26 00:52:51;;;;;;;;;;;;;;;;;;7366781;19;1520;-62
2023/09/26 00:55:20;;;;;;;;;;;;;;;;;;7368378;19;1460;-62
2023/09/26 00:57:48;;;;;;;;;;;;;;;;;;7364689;19;1737;-62
2023/09/26 01:00:18;;;;;;;;;;;;;;;;;;7366153;19;1838;-62
2023/09/26 01:02:46;;;;;;;;;;;;;;;;;;7367416;19;1864;-67
2023/09/26 01:05:14;;;;;;;;;;;;;;;;;;7367351;19;1884;-62
2023/09/26 01:07:42;;;;;;;;;;;;;;;;;;7366512;19;1875;-62
2023/09/26 01:10:10;;;;;;;;;;;;;;;;;;7365224;19;1675;-62
2023/09/26 01:12:39;;;;;;;;;;;;;;;;;;7365890;19;2069;-62
2023/09/26 01:15:07;;;;;;;;;;;;;;;;;;7371706;19;1801;-60
2023/09/26 01:17:35;;;;;;;;;;;;;;;;;;7373196;19;1472;-60
2023/09/26 01:20:08;;;;;;;;;;;;;;;;;;7368936;19;1811;-60
2023/09/26 01:22:36;;;;;;;;;;;;;;;;;;7370140;19;1861;-62
2023/09/26 01:25:05;;;;;;;;;;;;;;;;;;7371415;19;1729;-61
2023/09/26 01:27:34;;;;;;;;;;;;;;;;;;7372422;19;1699;-62
2023/09/26 01:30:03;;;;;;;;;;;;;;;;;;7370883;19;1727;-61
2023/09/26 01:32:31;;;;;;;;;;;;;;;;;;7371705;19;2059;-63
2023/09/26 01:34:57;;;;;;;;;;;;;;;;;;7369595;19;1683;-63
2023/09/26 01:37:25;;;;;;;;;;;;;;;;;;7373505;19;2041;-62
2023/09/26 01:39:53;;;;;;;;;;;;;;;;;;7373162;19;1802;-61
2023/09/26 01:42:22;;;;;;;;;;;;;;;;;;7375008;19;1841;-62
2023/09/26 01:44:50;;;;;;;;;;;;;;;;;;7369110;19;1728;-61
2023/09/26 01:47:18;;;;;;;;;;;;;;;;;;7376102;19;1219;-61
2023/09/26 01:49:46;;;;;;;;;;;;;;;;;;7370935;19;2183;-60
2023/09/26 01:52:14;;;;;;;;;;;;;;;;;;7373355;19;2038;-62
2023/09/26 01:54:43;;;;;;;;;;;;;;;;;;7373178;19;1494;-62
2023/09/26 01:57:11;;;;;;;;;;;;;;;;;;7369977;19;1739;-62
2023/09/26 01:59:39;;;;;;;;;;;;;;;;;;7369542;19;2039;-62
2023/09/26 02:02:07;;;;;;;;;;;;;;;;;;7372769;19;1735;-62
2023/09/26 02:04:35;;;;;;;;;;;;;;;;;;7371087;19;1959;-62
2023/09/26 02:07:03;;;;;;;;;;;;;;;;;;7372789;19;1710;-62
2023/09/26 02:09:31;;;;;;;;;;;;;;;;;;7374020;19;1791;-61
2023/09/26 02:12:03;;;;;;;;;;;;;;;;;;7370742;19;2038;-62
2023/09/26 02:14:31;;;;;;;;;;;;;;;;;;7369300;19;1775;-63
2023/09/26 02:16:59;;;;;;;;;;;;;;;;;;7369551;19;2119;-62
2023/09/26 02:19:28;;;;;;;;;;;;;;;;;;7368430;19;2089;-63
2023/09/26 02:21:56;;;;;;;;;;;;;;;;;;7371338;19;1649;-63
2023/09/26 02:24:24;;;;;;;;;;;;;;;;;;7365221;19;1846;-63
2023/09/26 02:26:52;;;;;;;;;;;;;;;;;;7369011;19;837;-63
2023/09/26 02:29:20;;;;;;;;;;;;;;;;;;7367853;19;1300;-63
2023/09/26 02:31:48;;;;;;;;;;;;;;;;;;7367407;19;799;-62
2023/09/26 02:34:14;;;;;;;;;;;;;;;;;;7367612;19;838;-63
2023/09/26 02:36:42;;;;;;;;;;;;;;;;;;7369158;19;1538;-62
2023/09/26 02:39:10;;;;;;;;;;;;;;;;;;7366307;19;1270;-63
2023/09/26 02:41:40;;;;;;;;;;;;;;;;;;7367686;19;872;-63
2023/09/26 02:44:08;;;;;;;;;;;;;;;;;;7368139;19;1838;-63
2023/09/26 02:46:36;;;;;;;;;;;;;;;;;;7370925;19;2076;-63
2023/09/26 02:49:05;;;;;;;;;;;;;;;;;;7368649;19;1903;-61
2023/09/26 02:51:33;;;;;;;;;;;;;;;;;;7370494;19;2090;-61
2023/09/26 02:54:02;;;;;;;;;;;;;;;;;;7370171;19;1695;-60
2023/09/26 02:56:30;;;;;;;;;;;;;;;;;;7367429;19;1809;-62
2023/09/26 02:58:58;;;;;;;;;;;;;;;;;;7370228;19;1693;-60
2023/09/26 03:01:26;;;;;;;;;;;;;;;;;;7369600;19;1846;-58
2023/09/26 03:03:55;;;;;;;;;;;;;;;;;;7367207;19;1869;-61
2023/09/26 03:06:23;;;;;;;;;;;;;;;;;;7370080;19;1620;-61
2023/09/26 03:08:51;;;;;;;;;;;;;;;;;;7368240;19;2032;-62
2023/09/26 03:11:19;;;;;;;;;;;;;;;;;;7369391;19;1614;-62
2023/09/26 03:13:48;;;;;;;;;;;;;;;;;;7369353;19;1586;-62
2023/09/26 03:16:16;;;;;;;;;;;;;;;;;;7367918;19;2058;-61
2023/09/26 03:18:44;;;;;;;;;;;;;;;;;;7367988;19;2144;-62
2023/09/26 03:21:13;;;;;;;;;;;;;;;;;;7370100;19;1974;-62
2023/09/26 03:23:41;;;;;;;;;;;;;;;;;;7365816;19;1834;-60
2023/09/26 03:26:09;;;;;;;;;;;;;;;;;;7369143;19;1851;-60
2023/09/26 03:28:37;;;;;;;;;;;;;;;;;;7371305;19;807;-60
2023/09/26 03:31:06;;;;;;;;;;;;;;;;;;7363914;19;1269;-61
2023/09/26 03:33:35;;;;;;;;;;;;;;;;;;7365965;19;913;-62
2023/09/26 03:36:03;;;;;;;;;;;;;;;;;;7364545;19;841;-61
2023/09/26 03:38:31;;;;;;;;;;;;;;;;;;7369961;19;1405;-59
2023/09/26 03:41:00;;;;;;;;;;;;;;;;;;7364403;19;1332;-59
2023/09/26 03:43:28;;;;;;;;;;;;;;;;;;7366456;19;1842;-62
2023/09/26 03:45:56;;;;;;;;;;;;;;;;;;7365767;19;1793;-62
2023/09/26 03:48:24;;;;;;;;;;;;;;;;;;7365453;19;1926;-62
2023/09/26 03:50:52;;;;;;;;;;;;;;;;;;7366724;19;1838;-62
2023/09/26 03:53:20;;;;;;;;;;;;;;;;;;7367929;19;1991;-61
2023/09/26 03:55:48;;;;;;;;;;;;;;;;;;7368438;19;1779;-60
2023/09/26 03:58:16;;;;;;;;;;;;;;;;;;7370213;19;1900;-61
2023/09/26 04:00:45;;;;;;;;;;;;;;;;;;7367316;19;1665;-61
2023/09/26 04:03:13;;;;;;;;;;;;;;;;;;7365371;19;1837;-60
2023/09/26 04:05:45;;;;;;;;;;;;;;;;;;7365392;19;1636;-62
2023/09/26 04:08:14;;;;;;;;;;;;;;;;;;7369881;19;1456;-61
2023/09/26 04:10:42;;;;;;;;;;;;;;;;;;7363237;19;1273;-62
2023/09/26 04:13:10;;;;;;;;;;;;;;;;;;7367377;19;1976;-61
2023/09/26 04:15:38;;;;;;;;;;;;;;;;;;7367988;19;1609;-62
2023/09/26 04:18:06;;;;;;;;;;;;;;;;;;7365208;19;2066;-61
2023/09/26 04:20:34;;;;;;;;;;;;;;;;;;7366094;19;1754;-61
2023/09/26 04:23:02;;;;;;;;;;;;;;;;;;7364957;19;1845;-61
2023/09/26 04:25:31;;;;;;;;;;;;;;;;;;7363276;19;1787;-62
2023/09/26 04:27:59;;;;;;;;;;;;;;;;;;7369605;19;1505;-61
2023/09/26 04:30:27;;;;;;;;;;;;;;;;;;7367513;19;1570;-62
2023/09/26 04:32:55;;;;;;;;;;;;;;;;;;7365062;19;852;-61
2023/09/26 04:35:24;;;;;;;;;;;;;;;;;;7367458;19;1658;-61
2023/09/26 04:37:52;;;;;;;;;;;;;;;;;;7368490;19;1493;-61
2023/09/26 04:40:20;;;;;;;;;;;;;;;;;;7363304;19;1351;-57
2023/09/26 04:42:51;;;;;;;;;;;;;;;;;;7366860;19;1918;-60
2023/09/26 04:45:19;;;;;;;;;;;;;;;;;;7365447;19;1846;-62
2023/09/26 04:47:47;;;;;;;;;;;;;;;;;;7367166;19;1665;-60
2023/09/26 04:50:16;;;;;;;;;;;;;;;;;;7372261;19;2033;-59
2023/09/26 04:52:44;;;;;;;;;;;;;;;;;;7375448;19;2102;-67
2023/09/26 04:55:12;;;;;;;;;;;;;;;;;;7374338;19;1656;-62
2023/09/26 04:57:40;;;;;;;;;;;;;;;;;;7374023;19;1583;-62
2023/09/26 05:00:10;;;;;;;;;;;;;;;;;;7374022;19;1392;-62
2023/09/26 05:02:38;;;;;;;;;;;;;;;;;;7371754;19;2009;-62
2023/09/26 05:05:06;;;;;;;;;;;;;;;;;;7370297;19;2083;-63
2023/09/26 05:07:34;;;;;;;;;;;;;;;;;;7374874;19;1574;-63
2023/09/26 05:10:03;;;;;;;;;;;;;;;;;;7372419;19;1384;-62
2023/09/26 05:12:31;;;;;;;;;;;;;;;;;;7372927;19;1678;-63
2023/09/26 05:14:59;;;;;;;;;;;;;;;;;;7372736;19;1193;-61
2023/09/26 05:17:27;;;;;;;;;;;;;;;;;;7373220;19;1442;-63
2023/09/26 05:19:55;;;;;;;;;;;;;;;;;;7371077;19;1793;-63
2023/09/26 05:22:23;;;;;;;;;;;;;;;;;;7372908;19;1451;-62
2023/09/26 05:24:51;;;;;;;;;;;;;;;;;;7367760;19;1853;-63
2023/09/26 05:27:20;;;;;;;;;;;;;;;;;;7370439;19;1849;-62
2023/09/26 05:29:48;;;;;;;;;;;;;;;;;;7372499;19;1665;-62
2023/09/26 05:32:16;;;;;;;;;;;;;;;;;;7373290;19;1812;-59
2023/09/26 05:34:44;;;;;;;;;;;;;;;;;;7372280;19;1460;-62
2023/09/26 05:37:12;;;;;;;;;;;;;;;;;;7369930;19;722;-62
2023/09/26 05:39:40;;;;;;;;;;;;;;;;;;7369468;19;1855;-62
2023/09/26 05:42:10;;;;;;;;;;;;;;;;;;7373369;19;1308;-60
2023/09/26 05:44:38;;;;;;;;;;;;;;;;;;7367376;19;1855;-62
2023/09/26 05:47:06;;;;;;;;;;;;;;;;;;7372736;19;1689;-62
2023/09/26 05:49:34;;;;;;;;;;;;;;;;;;7371639;19;1513;-63
2023/09/26 05:52:02;;;;;;;;;;;;;;;;;;7373817;19;1102;-61
2023/09/26 05:54:30;;;;;;;;;;;;;;;;;;7369307;19;813;-63
2023/09/26 05:56:58;;;;;;;;;;;;;;;;;;7369127;19;842;-63
2023/09/26 05:59:27;;;;;;;;;;;;;;;;;;7368238;19;1249;-61
2023/09/26 06:01:55;;;;;;;;;;;;;;;;;;7369352;19;1871;-63
2023/09/26 06:04:23;;;;;;;;;;;;;;;;;;7372175;19;1854;-63
2023/09/26 06:06:51;;;;;;;;;;;;;;;;;;7370368;19;1798;-63
2023/09/26 06:09:19;;;;;;;;;;;;;;;;;;7372733;19;1559;-62
2023/09/26 06:11:47;;;;;;;;;;;;;;;;;;7369045;19;802;-61
2023/09/26 06:14:15;;;;;;;;;;;;;;;;;;7368684;19;793;-62
2023/09/26 06:16:43;;;;;;;;;;;;;;;;;;7368728;19;836;-61
2023/09/26 06:19:12;;;;;;;;;;;;;;;;;;7369018;19;1279;-62
2023/09/26 06:21:40;;;;;;;;;;;;;;;;;;7370114;19;2096;-60
2023/09/26 06:24:08;;;;;;;;;;;;;;;;;;7370146;19;1863;-62
2023/09/26 06:26:36;;;;;;;;;;;;;;;;;;7369417;19;1799;-62
2023/09/26 06:29:04;;;;;;;;;;;;;;;;;;7370468;19;1912;-62
2023/09/26 06:31:30;;;;;;;;;;;;;;;;;;7371539;19;1459;-61
2023/09/26 06:34:00;;;;;;;;;;;;;;;;;;7368719;19;817;-63
2023/09/26 06:36:30;;;;;;;;;;;;;;;;;;7367753;19;870;-62
2023/09/26 06:38:58;;;;;;;;;;;;;;;;;;7368551;19;1320;-61
2023/09/26 06:41:26;;;;;;;;;;;;;;;;;;7368540;19;808;-61
2023/09/26 06:43:54;;;;;;;;;;;;;;;;;;7366549;19;1871;-62
2023/09/26 06:46:23;;;;;;;;;;;;;;;;;;7367419;19;846;-62
2023/09/26 06:48:52;;;;;;;;;;;;;;;;;;7368400;19;1375;-62
2023/09/26 06:51:20;;;;;;;;;;;;;;;;;;7368700;19;813;-62
2023/09/26 06:53:48;;;;;;;;;;;;;;;;;;7368110;19;868;-62
2023/09/26 06:56:16;;;;;;;;;;;;;;;;;;7367534;19;862;-62
2023/09/26 06:58:44;;;;;;;;;;;;;;;;;;7368078;19;876;-61
2023/09/26 07:01:12;;;;;;;;;;;;;;;;;;7365036;19;1375;-61
2023/09/26 07:03:40;;;;;;;;;;;;;;;;;;7367198;19;1846;-62
2023/09/26 07:06:08;;;;;;;;;;;;;;;;;;7367553;19;857;-61
2023/09/26 07:08:37;;;;;;;;;;;;;;;;;;7367952;19;792;-61
2023/09/26 07:11:05;;;;;;;;;;;;;;;;;;7362927;19;1367;-59
2023/09/26 07:13:34;;;;;;;;;;;;;;;;;;7368120;19;798;-59
2023/09/26 07:16:03;;;;;;;;;;;;;;;;;;7366896;19;782;-62
2023/09/26 07:18:31;;;;;;;;;;;;;;;;;;7368224;19;849;-61
2023/09/26 07:20:59;;;;;;;;;;;;;;;;;;7365109;19;1247;-62
2023/09/26 07:23:27;;;;;;;;;;;;;;;;;;7367914;19;794;-60
2023/09/26 07:25:56;;;;;;;;;;;;;;;;;;7364266;19;1849;-60
2023/09/26 07:28:24;;;;;;;;;;;;;;;;;;7367191;19;880;-61
2023/09/26 07:30:53;;;;;;;;;;;;;;;;;;7365049;19;1330;-61
2023/09/26 07:33:21;;;;;;;;;;;;;;;;;;7367503;19;863;-61
2023/09/26 07:35:49;;;;;;;;;;;;;;;;;;7366407;19;884;-60
2023/09/26 07:38:17;;;;;;;;;;;;;;;;;;7367240;19;1171;-62
2023/09/26 07:40:45;;;;;;;;;;;;;;;;;;7364646;19;1747;-62
2023/09/26 07:43:13;;;;;;;;;;;;;;;;;;7365257;19;824;-61
2023/09/26 07:45:42;;;;;;;;;;;;;;;;;;7363613;19;1838;-61
2023/09/26 07:48:10;;;;;;;;;;;;;;;;;;7367109;19;819;-60
2023/09/26 07:50:38;;;;;;;;;;;;;;;;;;7364906;19;1407;-61
2023/09/26 07:53:06;;;;;;;;;;;;;;;;;;7367771;19;813;-60
2023/09/26 07:55:34;;;;;;;;;;;;;;;;;;7366382;19;869;-61
2023/09/26 07:58:03;;;;;;;;;;;;;;;;;;7367288;19;806;-62
2023/09/26 08:00:31;;;;;;;;;;;;;;;;;;7364932;19;1254;-61
2023/09/26 08:02:59;;;;;;;;;;;;;;;;;;7366921;19;837;-60
2023/09/26 08:05:27;;;;;;;;;;;;;;;;;;7363991;19;1847;-60
2023/09/26 08:07:58;;;;;;;;;;;;;;;;;;7366905;19;793;-61
2023/09/26 08:10:26;;;;;;;;;;;;;;;;;;7364037;19;1398;-61
2023/09/26 08:12:54;;;;;;;;;;;;;;;;;;7365675;19;748;-63
2023/09/26 08:15:22;;;;;;;;;;;;;;;;;;7365895;19;727;-61
2023/09/26 08:17:51;;;;;;;;;;;;;;;;;;7366440;19;884;-61
2023/09/26 08:20:19;;;;;;;;;;;;;;;;;;7364740;19;1272;-62
2023/09/26 08:22:47;;;;;;;;;;;;;;;;;;7365741;19;924;-62
2023/09/26 08:25:15;;;;;;;;;;;;;;;;;;7364308;19;1837;-62
2023/09/26 08:27:43;;;;;;;;;;;;;;;;;;7366089;19;769;-62
2023/09/26 08:30:11;;;;;;;;;;;;;;;;;;7364226;19;1314;-61
2023/09/26 08:32:40;;;;;;;;;;;;;;;;;;7366506;19;876;-63
2023/09/26 08:35:08;;;;;;;;;;;;;;;;;;7364679;19;882;-60
2023/09/26 08:37:36;;;;;;;;;;;;;;;;;;7366280;19;853;-62
2023/09/26 08:40:05;;;;;;;;;;;;;;;;;;7364380;19;1270;-61
2023/09/26 08:42:36;;;;;;;;;;;;;;;;;;7366036;19;738;-61
2023/09/26 08:45:05;;;;;;;;;;;;;;;;;;7363406;19;1866;-62
2023/09/26 08:47:35;;;;;;;;;;;;;;;;;;7365188;19;786;-63
2023/09/26 08:50:04;;;;;;;;;;;;;;;;;;7363604;19;1367;-61
2023/09/26 08:52:33;;;;;;;;;;;;;;;;;;7365434;19;843;-62
2023/09/26 08:55:01;;;;;;;;;;;;;;;;;;7364841;19;877;-60
2023/09/26 08:57:29;;;;;;;;;;;;;;;;;;7365276;19;870;-60
2023/09/26 08:59:57;;;;;;;;;;;;;;;;;;7363736;19;1324;-62
2023/09/26 09:02:26;;;;;;;;;;;;;;;;;;7365498;19;828;-62
2023/09/26 09:04:54;;;;;;;;;;;;;;;;;;7363508;19;1861;-63
2023/09/26 09:07:22;;;;;;;;;;;;;;;;;;7364816;19;834;-62
2023/09/26 09:09:51;;;;;;;;;;;;;;;;;;7363730;19;1284;-62
2023/09/26 09:12:19;;;;;;;;;;;;;;;;;;7364310;19;802;-62
2023/09/26 09:14:47;;;;;;;;;;;;;;;;;;7364359;19;862;-62
2023/09/26 09:17:15;;;;;;;;;;;;;;;;;;7364251;19;810;-62
2023/09/26 09:19:43;;;;;;;;;;;;;;;;;;7363403;19;1328;-62
2023/09/26 09:22:11;;;;;;;;;;;;;;;;;;7364009;19;833;-61
2023/09/26 09:24:39;;;;;;;;;;;;;;;;;;7362616;19;1850;-62
2023/09/26 09:27:07;;;;;;;;;;;;;;;;;;7364010;19;874;-62
2023/09/26 09:29:36;;;;;;;;;;;;;;;;;;7363920;19;1266;-62
2023/09/26 09:32:04;;;;;;;;;;;;;;;;;;7364025;19;851;-63
2023/09/26 09:34:32;;;;;;;;;;;;;;;;;;7364610;19;829;-62
2023/09/26 09:37:00;;;;;;;;;;;;;;;;;;7370605;19;873;-61
2023/09/26 09:39:28;;;;;;;;;;;;;;;;;;7370178;19;1224;-62
2023/09/26 09:41:56;;;;;;;;;;;;;;;;;;7370231;19;785;-61
2023/09/26 09:44:25;;;;;;;;;;;;;;;;;;7370522;19;1849;-61
2023/09/26 09:46:53;;;;;;;;;;;;;;;;;;7370241;19;773;-63
2023/09/26 09:49:21;;;;;;;;;;;;;;;;;;7369504;19;1295;-63
2023/09/26 09:51:50;;;;;;;;;;;;;;;;;;7371182;19;790;-62
2023/09/26 09:54:20;;;;;;;;;;;;;;;;;;7369857;19;733;-62
2023/09/26 09:56:48;;;;;;;;;;;;;;;;;;7369898;19;826;-62
2023/09/26 09:59:16;;;;;;;;;;;;;;;;;;7370156;19;1343;-62
2023/09/26 10:01:44;;;;;;;;;;;;;;;;;;7370123;19;818;-62
2023/09/26 10:04:13;;;;;;;;;;;;;;;;;;7370534;19;817;-62
2023/09/26 10:06:41;;;;;;;;;;;;;;;;;;7367625;19;1854;-61
2023/09/26 10:09:09;;;;;;;;;;;;;;;;;;7369010;19;1287;-60
2023/09/26 10:11:38;;;;;;;;;;;;;;;;;;7370245;19;821;-61
2023/09/26 10:14:06;;;;;;;;;;;;;;;;;;7370170;19;795;-60
2023/09/26 10:16:34;;;;;;;;;;;;;;;;;;7369812;19;831;-60
2023/09/26 10:19:03;;;;;;;;;;;;;;;;;;7369287;19;1284;-61
2023/09/26 10:21:31;;;;;;;;;;;;;;;;;;7369631;19;828;-61
2023/09/26 10:23:59;;;;;;;;;;;;;;;;;;7370387;19;870;-63
2023/09/26 10:26:28;;;;;;;;;;;;;;;;;;7367535;19;1853;-61
2023/09/26 10:28:56;;;;;;;;;;;;;;;;;;7369242;19;1296;-62
2023/09/26 10:31:24;;;;;;;;;;;;;;;;;;7368497;19;806;-61
2023/09/26 10:33:52;;;;;;;;;;;;;;;;;;7369428;19;808;-62
2023/09/26 10:36:20;;;;;;;;;;;;;;;;;;7368369;19;855;-63
2023/09/26 10:38:49;;;;;;;;;;;;;;;;;;7369577;19;840;-60
2023/09/26 10:41:17;;;;;;;;;;;;;;;;;;7369092;19;822;-62
2023/09/26 10:43:45;;;;;;;;;;;;;;;;;;7369396;19;874;-61
2023/09/26 10:46:13;;;;;;;;;;;;;;;;;;7366474;19;1851;-61
2023/09/26 10:48:41;;;;;;;;;;;;;;;;;;7368667;19;853;-60
2023/09/26 10:51:09;;;;;;;;;;;;;;;;;;7365992;19;1301;-61
2023/09/26 10:53:37;;;;;;;;;;;;;;;;;;7367194;19;822;-62
2023/09/26 10:56:06;;;;;;;;;;;;;;;;;;7368098;19;841;-62
2023/09/26 10:58:34;;;;;;;;;;;;;;;;;;7368926;19;726;-63
2023/09/26 11:01:02;;;;;;;;;;;;;;;;;;7366309;19;1344;-63
2023/09/26 11:03:30;;;;;;;;;;;;;;;;;;7368920;19;789;-62
2023/09/26 11:05:58;;;;;;;;;;;;;;;;;;7366531;19;1841;-62
2023/09/26 11:08:27;;;;;;;;;;;;;;;;;;7368894;19;797;-63
2023/09/26 11:10:55;;;;;;;;;;;;;;;;;;7365900;19;1279;-62
2023/09/26 11:13:23;;;;;;;;;;;;;;;;;;7367748;19;736;-63
2023/09/26 11:15:51;;;;;;;;;;;;;;;;;;7368012;19;880;-63
2023/09/26 11:18:19;;;;;;;;;;;;;;;;;;7368011;19;791;-62
2023/09/26 11:20:47;;;;;;;;;;;;;;;;;;7364875;19;1281;-62
2023/09/26 11:23:15;;;;;;;;;;;;;;;;;;7368425;19;797;-61
2023/09/26 11:25:44;;;;;;;;;;;;;;;;;;7366449;19;1853;-60
2023/09/26 11:28:12;;;;;;;;;;;;;;;;;;7370943;19;1143;-63
2023/09/26 11:30:40;;;;;;;;;;;;;;;;;;7365322;19;1207;-61
2023/09/26 11:33:09;;;;;;;;;;;;;;;;;;7367345;19;955;-61
2023/09/26 11:35:38;;;;;;;;;;;;;;;;;;7366827;19;819;-61
2023/09/26 11:38:06;;;;;;;;;;;;;;;;;;7367003;19;842;-62
2023/09/26 11:40:34;;;;;;;;;;;;;;;;;;7365554;19;1357;-61
2023/09/26 11:43:03;;;;;;;;;;;;;;;;;;7367216;19;857;-63
2023/09/26 11:45:31;;;;;;;;;;;;;;;;;;7365381;19;1818;-61
2023/09/26 11:48:01;;;;;;;;;;;;;;;;;;7367232;19;859;-62
2023/09/26 11:50:29;;;;;;;;;;;;;;;;;;7364863;19;1275;-63
2023/09/26 11:52:57;;;;;;;;;;;;;;;;;;7367042;19;822;-63
2023/09/26 11:55:26;;;;;;;;;;;;;;;;;;7365528;19;848;-64
2023/09/26 11:57:54;;;;;;;;;;;;;;;;;;7365699;19;820;-63
2023/09/26 12:00:22;;;;;;;;;;;;;;;;;;7364003;19;1829;-64
2023/09/26 12:02:50;;;;;;;;;;;;;;;;;;7367281;19;767;-65
2023/09/26 12:05:20;;;;;;;;;;;;;;;;;;7365324;19;1841;-61
2023/09/26 12:07:48;;;;;;;;;;;;;;;;;;7365895;19;900;-63
2023/09/26 12:10:17;;;;;;;;;;;;;;;;;;7364750;19;1286;-62
2023/09/26 12:12:46;;;;;;;;;;;;;;;;;;7366837;19;858;-61
2023/09/26 12:15:14;;;;;;;;;;;;;;;;;;7366408;19;805;-63
2023/09/26 12:17:42;;;;;;;;;;;;;;;;;;7366498;19;800;-64
2023/09/26 12:20:10;;;;;;;;;;;;;;;;;;7364329;19;1274;-63
2023/09/26 12:22:38;;;;;;;;;;;;;;;;;;7367051;19;797;-63
2023/09/26 12:25:06;;;;;;;;;;;;;;;;;;7366056;19;881;-63
2023/09/26 12:27:34;;;;;;;;;;;;;;;;;;7362704;19;1847;-64
2023/09/26 12:30:02;;;;;;;;;;;;;;;;;;7364251;19;1277;-63
2023/09/26 12:32:31;;;;;;;;;;;;;;;;;;7365876;19;829;-63
2023/09/26 12:34:59;;;;;;;;;;;;;;;;;;7364896;19;840;-63
2023/09/26 12:37:27;;;;;;;;;;;;;;;;;;7366056;19;816;-63
2023/09/26 12:39:55;;;;;;;;;;;;;;;;;;7364515;19;1262;-62
2023/09/26 12:42:23;;;;;;;;;;;;;;;;;;7365983;19;836;-63
2023/09/26 12:44:51;;;;;;;;;;;;;;;;;;7364779;19;961;-63
2023/09/26 12:47:19;;;;;;;;;;;;;;;;;;7363148;19;1902;-62
2023/09/26 12:49:48;;;;;;;;;;;;;;;;;;7364190;19;1313;-63
2023/09/26 12:52:17;;;;;;;;;;;;;;;;;;7365328;19;856;-64
2023/09/26 12:54:48;;;;;;;;;;;;;;;;;;7364433;19;842;-63
2023/09/26 12:57:16;;;;;;;;;;;;;;;;;;7365366;19;702;-62
2023/09/26 12:59:44;;;;;;;;;;;;;;;;;;7364076;19;1254;-62
2023/09/26 13:02:12;;;;;;;;;;;;;;;;;;7365681;19;935;-62
2023/09/26 13:04:40;;;;;;;;;;;;;;;;;;7364616;19;867;-61
2023/09/26 13:07:08;;;;;;;;;;;;;;;;;;7363576;19;1845;-59
2023/09/26 13:09:37;;;;;;;;;;;;;;;;;;7364950;19;1705;-62
2023/09/26 13:12:05;;;;;;;;;;;;;;;;;;7371409;19;1867;-60
2023/09/26 13:14:33;;;;;;;;;;;;;;;;;;7372099;19;1672;-62
2023/09/26 13:17:01;;;;;;;;;;;;;;;;;;7370181;19;1734;-63
2023/09/26 13:19:30;;;;;;;;;;;;;;;;;;7374578;19;1706;-61
2023/09/26 13:21:58;;;;;;;;;;;;;;;;;;7370078;19;1554;-61
2023/09/26 13:24:26;;;;;;;;;;;;;;;;;;7374892;19;1058;-62
2023/09/26 13:26:55;;;;;;;;;;;;;;;;;;7368570;19;1845;-62
2023/09/26 13:29:24;;;;;;;;;;;;;;;;;;7370527;19;1334;-62
2023/09/26 13:31:52;;;;;;;;;;;;;;;;;;7370970;19;847;-62
2023/09/26 13:34:20;;;;;;;;;;;;;;;;;;7370427;19;820;-63
2023/09/26 13:36:48;;;;;;;;;;;;;;;;;;7371758;19;2092;-62
2023/09/26 13:39:17;;;;;;;;;;;;;;;;;;7373548;19;2060;-62
2023/09/26 13:41:45;;;;;;;;;;;;;;;;;;7371486;19;1520;-62
2023/09/26 13:44:13;;;;;;;;;;;;;;;;;;7370152;19;807;-62
2023/09/26 13:46:41;;;;;;;;;;;;;;;;;;7368982;19;1829;-62
2023/09/26 13:49:09;;;;;;;;;;;;;;;;;;7370290;19;2205;-63
2023/09/26 13:51:38;;;;;;;;;;;;;;;;;;7373550;19;1653;-62
2023/09/26 13:54:06;;;;;;;;;;;;;;;;;;7371514;19;2050;-60
2023/09/26 13:56:34;;;;;;;;;;;;;;;;;;7371696;19;1469;-61
2023/09/26 13:59:02;;;;;;;;;;;;;;;;;;7369311;19;1849;-64
2023/09/26 14:01:31;;;;;;;;;;;;;;;;;;7374909;19;1531;-61
2023/09/26 14:03:59;;;;;;;;;;;;;;;;;;7370339;19;868;-61
2023/09/26 14:06:27;;;;;;;;;;;;;;;;;;7369741;19;1899;-61
2023/09/26 14:08:55;;;;;;;;;;;;;;;;;;7371397;19;1863;-62
2023/09/26 14:11:23;;;;;;;;;;;;;;;;;;7370276;19;1693;-61
2023/09/26 14:13:51;;;;;;;;;;;;;;;;;;7368952;19;2004;-63
2023/09/26 14:16:19;;;;;;;;;;;;;;;;;;7373014;19;1417;-61
2023/09/26 14:18:48;;;;;;;;;;;;;;;;;;7368319;19;784;-62
2023/09/26 14:21:17;;;;;;;;;;;;;;;;;;7365837;19;1344;-62
2023/09/26 14:23:45;;;;;;;;;;;;;;;;;;7368484;19;1688;-62
2023/09/26 14:26:14;;;;;;;;;;;;;;;;;;7369574;19;1849;-61
2023/09/26 14:28:43;;;;;;;;;;;;;;;;;;7372293;19;1675;-62
2023/09/26 14:31:11;;;;;;;;;;;;;;;;;;7366986;19;1310;-62
2023/09/26 14:33:37;;;;;;;;;;;;;;;;;;7368304;19;1823;-62
2023/09/26 14:36:05;;;;;;;;;;;;;;;;;;7372385;19;1847;-64
2023/09/26 14:38:33;;;;;;;;;;;;;;;;;;7368423;19;1746;-62
2023/09/26 14:41:01;;;;;;;;;;;;;;;;;;7369145;19;1857;-62
2023/09/26 14:43:29;;;;;;;;;;;;;;;;;;7369815;19;1145;-62
2023/09/26 14:45:58;;;;;;;;;;;;;;;;;;7366303;19;1858;-63
2023/09/26 14:48:26;;;;;;;;;;;;;;;;;;7371995;19;1114;-63
2023/09/26 14:50:55;;;;;;;;;;;;;;;;;;7366521;19;1254;-63
2023/09/26 14:53:23;;;;;;;;;;;;;;;;;;7367085;19;1711;-63
2023/09/26 14:55:51;;;;;;;;;;;;;;;;;;7367676;19;1828;-63
2023/09/26 14:58:19;;;;;;;;;;;;;;;;;;7367679;19;2007;-63
2023/09/26 15:00:47;;;;;;;;;;;;;;;;;;7362996;19;1994;-63
2023/09/26 15:03:15;;;;;;;;;;;;;;;;;;7370318;19;2008;-63
2023/09/26 15:05:43;;;;;;;;;;;;;;;;;;7366400;19;1817;-63
2023/09/26 15:08:12;;;;;;;;;;;;;;;;;;7365518;19;1877;-63
2023/09/26 15:10:40;;;;;;;;;;;;;;;;;;7367454;19;1899;-64
2023/09/26 15:13:11;;;;;;;;;;;;;;;;;;7368686;19;1676;-63
2023/09/26 15:15:39;;;;;;;;;;;;;;;;;;7370822;19;1638;-65
2023/09/26 15:18:08;;;;;;;;;;;;;;;;;;7368532;19;1489;-62
2023/09/26 15:20:36;;;;;;;;;;;;;;;;;;7362506;19;1949;-63
2023/09/26 15:23:04;;;;;;;;;;;;;;;;;;7362316;19;2092;-63
2023/09/26 15:25:32;;;;;;;;;;;;;;;;;;7365361;19;1811;-62
2023/09/26 15:28:00;;;;;;;;;;;;;;;;;;7364088;19;2086;-61
2023/09/26 15:30:28;;;;;;;;;;;;;;;;;;7369684;19;2137;-62
2023/09/26 15:32:56;;;;;;;;;;;;;;;;;;7365492;19;810;-62
2023/09/26 15:35:25;;;;;;;;;;;;;;;;;;7367514;19;824;-61
2023/09/26 15:37:53;;;;;;;;;;;;;;;;;;7367034;19;863;-63
2023/09/26 15:40:21;;;;;;;;;;;;;;;;;;7364750;19;1391;-63
2023/09/26 15:42:49;;;;;;;;;;;;;;;;;;7367259;19;869;-64
2023/09/26 15:45:18;;;;;;;;;;;;;;;;;;7366216;19;884;-62
2023/09/26 15:47:46;;;;;;;;;;;;;;;;;;7364553;19;1853;-61
2023/09/26 15:50:14;;;;;;;;;;;;;;;;;;7365262;19;1353;-63
2023/09/26 15:52:42;;;;;;;;;;;;;;;;;;7365831;19;1985;-63
2023/09/26 15:55:10;;;;;;;;;;;;;;;;;;7366744;19;1731;-64
2023/09/26 15:57:38;;;;;;;;;;;;;;;;;;7369324;19;1662;-63
2023/09/26 16:00:08;;;;;;;;;;;;;;;;;;7365169;19;1239;-64
2023/09/26 16:02:40;;;;;;;;;;;;;;;;;;7366834;19;1652;-63
2023/09/26 16:05:08;;;;;;;;;;;;;;;;;;7366661;19;1850;-61
2023/09/26 16:07:36;;;;;;;;;;;;;;;;;;7366781;19;1880;-62
2023/09/26 16:10:05;;;;;;;;;;;;;;;;;;7367871;19;2075;-62
2023/09/26 16:12:35;;;;;;;;;;;;;;;;;;7365972;19;849;-62
2023/09/26 16:15:03;;;;;;;;;;;;;;;;;;7365810;19;729;-63
2023/09/26 16:17:31;;;;;;;;;;;;;;;;;;7370813;19;1656;-62
2023/09/26 16:20:00;;;;;;;;;;;;;;;;;;7367710;19;1691;-63
2023/09/26 16:22:28;;;;;;;;;;;;;;;;;;7370289;19;1470;-63
2023/09/26 16:24:56;;;;;;;;;;;;;;;;;;7368813;19;2241;-64
2023/09/26 16:27:24;;;;;;;;;;;;;;;;;;7368085;19;1872;-67
2023/09/26 16:29:52;;;;;;;;;;;;;;;;;;7365054;19;1318;-62
2023/09/26 16:32:20;;;;;;;;;;;;;;;;;;7363725;19;1679;-63
2023/09/26 16:34:48;;;;;;;;;;;;;;;;;;7368224;19;1473;-63
2023/09/26 16:37:16;;;;;;;;;;;;;;;;;;7367326;19;1730;-65
2023/09/26 16:39:45;;;;;;;;;;;;;;;;;;7365900;19;2026;-61
2023/09/26 16:42:13;;;;;;;;;;;;;;;;;;7368146;19;1656;-60
2023/09/26 16:44:41;;;;;;;;;;;;;;;;;;7367117;19;1453;-63
2023/09/26 16:47:09;;;;;;;;;;;;;;;;;;7364530;19;1850;-63
2023/09/26 16:49:37;;;;;;;;;;;;;;;;;;7364317;19;1282;-64
2023/09/26 16:52:06;;;;;;;;;;;;;;;;;;7364718;19;819;-63
2023/09/26 16:54:34;;;;;;;;;;;;;;;;;;7366969;19;1962;-63
2023/09/26 16:57:02;;;;;;;;;;;;;;;;;;7368327;19;1714;-63
2023/09/26 16:59:30;;;;;;;;;;;;;;;;;;7368911;19;1732;-63
2023/09/26 17:01:59;;;;;;;;;;;;;;;;;;7365127;19;792;-63
2023/09/26 17:04:27;;;;;;;;;;;;;;;;;;7365721;19;2232;-64
2023/09/26 17:06:56;;;;;;;;;;;;;;;;;;7365645;19;1853;-63
2023/09/26 17:09:24;;;;;;;;;;;;;;;;;;7365972;19;1771;-63
2023/09/26 17:11:52;;;;;;;;;;;;;;;;;;7368066;19;1254;-64
2023/09/26 17:14:23;;;;;;;;;;;;;;;;;;7367000;19;2036;-61